sensor_id;sensor_type;location;lat;lon;timestamp;pressure;altitude;pressure_sealevel;temperature;humidity
11672;BME280;5892;43.412;24.612;2022-11-25T00:01:53;99731.44;;;8.21;99.50
11672;BME280;5892;43.412;24.612;2022-11-25T00:04:21;99737.72;;;8.21;99.77
11672;BME280;5892;43.412;24.612;2022-11-25T00:06:48;99739.94;;;8.19;100.00
11672;BME280;5892;43.412;24.612;2022-11-25T00:09:15;99733.16;;;8.17;99.92
11672;BME280;5892;43.412;24.612;2022-11-25T00:11:42;99736.81;;;8.12;100.00
11672;BME280;5892;43.412;24.612;2022-11-25T00:14:12;99734.59;;;8.14;100.00
11672;BME280;5892;43.412;24.612;2022-11-25T00:16:39;99743.78;;;8.18;100.00
11672;BME280;5892;43.412;24.612;2022-11-25T00:19:09;99741.56;;;8.20;100.00
11672;BME280;5892;43.412;24.612;2022-11-25T00:21:37;99735.41;;;8.15;100.00
11672;BME280;5892;43.412;24.612;2022-11-25T00:24:05;99717.94;;;8.02;100.00
11672;BME280;5892;43.412;24.612;2022-11-25T00:26:34;99733.34;;;8.20;100.00
11672;BME280;5892;43.412;24.612;2022-11-25T00:29:04;99739.41;;;8.17;100.00
11672;BME280;5892;43.412;24.612;2022-11-25T00:31:33;99734.06;;;8.12;100.00
11672;BME280;5892;43.412;24.612;2022-11-25T00:34:00;99749.22;;;8.18;100.00
11672;BME280;5892;43.412;24.612;2022-11-25T00:36:29;99750.03;;;8.19;99.80
11672;BME280;5892;43.412;24.612;2022-11-25T00:39:00;99735.53;;;8.09;99.69
11672;BME280;5892;43.412;24.612;2022-11-25T00:41:31;99746.19;;;8.20;100.00
11672;BME280;5892;43.412;24.612;2022-11-25T00:44:17;99743.59;;;8.15;100.00
11672;BME280;5892;43.412;24.612;2022-11-25T00:47:05;99739.34;;;8.08;100.00
11672;BME280;5892;43.412;24.612;2022-11-25T00:49:33;99748.66;;;8.07;100.00
11672;BME280;5892;43.412;24.612;2022-11-25T00:52:00;99745.34;;;7.97;100.00
11672;BME280;5892;43.412;24.612;2022-11-25T00:54:28;99751.69;;;8.06;100.00
11672;BME280;5892;43.412;24.612;2022-11-25T00:56:56;99760.38;;;8.08;100.00
11672;BME280;5892;43.412;24.612;2022-11-25T00:59:25;99702.66;;;7.79;100.00
11672;BME280;5892;43.412;24.612;2022-11-25T01:01:53;99750.44;;;8.12;100.00
11672;BME280;5892;43.412;24.612;2022-11-25T01:04:20;99744.50;;;8.10;100.00
11672;BME280;5892;43.412;24.612;2022-11-25T01:06:47;99740.69;;;7.97;100.00
11672;BME280;5892;43.412;24.612;2022-11-25T01:09:15;99756.03;;;8.07;100.00
11672;BME280;5892;43.412;24.612;2022-11-25T01:11:43;99760.19;;;8.04;100.00
11672;BME280;5892;43.412;24.612;2022-11-25T01:14:11;99715.59;;;7.73;100.00
11672;BME280;5892;43.412;24.612;2022-11-25T01:16:38;99750.31;;;7.95;100.00
11672;BME280;5892;43.412;24.612;2022-11-25T01:19:09;99757.97;;;7.93;100.00
11672;BME280;5892;43.412;24.612;2022-11-25T01:21:39;99726.09;;;7.66;100.00
11672;BME280;5892;43.412;24.612;2022-11-25T01:24:11;99747.00;;;7.84;100.00
11672;BME280;5892;43.412;24.612;2022-11-25T01:26:38;99743.47;;;7.84;100.00
11672;BME280;5892;43.412;24.612;2022-11-25T01:29:12;99759.44;;;7.77;100.00
11672;BME280;5892;43.412;24.612;2022-11-25T01:31:39;99722.69;;;7.60;100.00
11672;BME280;5892;43.412;24.612;2022-11-25T01:34:09;99740.97;;;7.74;100.00
11672;BME280;5892;43.412;24.612;2022-11-25T01:36:37;99745.72;;;7.68;100.00
11672;BME280;5892;43.412;24.612;2022-11-25T01:39:04;99716.03;;;7.53;100.00
11672;BME280;5892;43.412;24.612;2022-11-25T01:41:38;99693.53;;;7.34;100.00
11672;BME280;5892;43.412;24.612;2022-11-25T01:44:20;99744.72;;;7.64;100.00
11672;BME280;5892;43.412;24.612;2022-11-25T01:46:52;99753.78;;;7.59;100.00
11672;BME280;5892;43.412;24.612;2022-11-25T01:49:25;99753.19;;;7.62;100.00
11672;BME280;5892;43.412;24.612;2022-11-25T01:51:55;99754.19;;;7.66;100.00
11672;BME280;5892;43.412;24.612;2022-11-25T01:54:26;99760.56;;;7.62;100.00
11672;BME280;5892;43.412;24.612;2022-11-25T01:56:58;99758.81;;;7.66;100.00
11672;BME280;5892;43.412;24.612;2022-11-25T01:59:28;99758.44;;;7.73;100.00
11672;BME280;5892;43.412;24.612;2022-11-25T02:01:59;99765.50;;;7.74;100.00
11672;BME280;5892;43.412;24.612;2022-11-25T02:04:30;99761.44;;;7.71;100.00
11672;BME280;5892;43.412;24.612;2022-11-25T02:07:03;99751.28;;;7.63;100.00
11672;BME280;5892;43.412;24.612;2022-11-25T02:09:34;99760.03;;;7.74;100.00
11672;BME280;5892;43.412;24.612;2022-11-25T02:12:03;99764.38;;;7.75;100.00
11672;BME280;5892;43.412;24.612;2022-11-25T02:14:32;99782.06;;;7.77;100.00
11672;BME280;5892;43.412;24.612;2022-11-25T02:17:00;99766.91;;;7.71;100.00
11672;BME280;5892;43.412;24.612;2022-11-25T02:19:35;99763.47;;;7.65;100.00
11672;BME280;5892;43.412;24.612;2022-11-25T02:22:09;99781.06;;;7.73;100.00
11672;BME280;5892;43.412;24.612;2022-11-25T02:24:40;99765.59;;;7.55;100.00
11672;BME280;5892;43.412;24.612;2022-11-25T02:27:10;99790.84;;;7.74;100.00
11672;BME280;5892;43.412;24.612;2022-11-25T02:29:38;99788.72;;;7.71;100.00
11672;BME280;5892;43.412;24.612;2022-11-25T02:32:05;99793.78;;;7.64;100.00
11672;BME280;5892;43.412;24.612;2022-11-25T02:34:32;99786.09;;;7.66;100.00
11672;BME280;5892;43.412;24.612;2022-11-25T02:36:59;99786.72;;;7.63;100.00
11672;BME280;5892;43.412;24.612;2022-11-25T02:39:27;99791.56;;;7.66;100.00
11672;BME280;5892;43.412;24.612;2022-11-25T02:41:56;99799.03;;;7.60;100.00
11672;BME280;5892;43.412;24.612;2022-11-25T02:44:25;99782.56;;;7.52;100.00
11672;BME280;5892;43.412;24.612;2022-11-25T02:46:52;99785.19;;;7.57;100.00
11672;BME280;5892;43.412;24.612;2022-11-25T02:49:20;99791.84;;;7.51;100.00
11672;BME280;5892;43.412;24.612;2022-11-25T02:51:48;99792.38;;;7.53;100.00
11672;BME280;5892;43.412;24.612;2022-11-25T02:54:15;99770.34;;;7.36;100.00
11672;BME280;5892;43.412;24.612;2022-11-25T02:56:42;99788.31;;;7.37;100.00
11672;BME280;5892;43.412;24.612;2022-11-25T02:59:10;99796.09;;;7.43;100.00
11672;BME280;5892;43.412;24.612;2022-11-25T03:01:39;99792.34;;;7.39;100.00
11672;BME280;5892;43.412;24.612;2022-11-25T03:04:06;99795.31;;;7.43;100.00
11672;BME280;5892;43.412;24.612;2022-11-25T03:06:33;99800.03;;;7.51;100.00
11672;BME280;5892;43.412;24.612;2022-11-25T03:09:00;99804.69;;;7.50;100.00
11672;BME280;5892;43.412;24.612;2022-11-25T03:11:27;99823.28;;;7.48;100.00
11672;BME280;5892;43.412;24.612;2022-11-25T03:14:07;99805.59;;;7.46;100.00
11672;BME280;5892;43.412;24.612;2022-11-25T03:16:34;99808.31;;;7.59;100.00
11672;BME280;5892;43.412;24.612;2022-11-25T03:19:03;99811.34;;;7.58;100.00
11672;BME280;5892;43.412;24.612;2022-11-25T03:21:30;99815.19;;;7.57;100.00
11672;BME280;5892;43.412;24.612;2022-11-25T03:23:57;99806.81;;;7.53;100.00
11672;BME280;5892;43.412;24.612;2022-11-25T03:26:24;99816.19;;;7.61;100.00
11672;BME280;5892;43.412;24.612;2022-11-25T03:28:51;99813.66;;;7.64;100.00
11672;BME280;5892;43.412;24.612;2022-11-25T03:31:18;99807.44;;;7.64;100.00
11672;BME280;5892;43.412;24.612;2022-11-25T03:33:46;99814.38;;;7.56;100.00
11672;BME280;5892;43.412;24.612;2022-11-25T03:36:14;99814.56;;;7.60;100.00
11672;BME280;5892;43.412;24.612;2022-11-25T03:38:41;99808.00;;;7.61;100.00
11672;BME280;5892;43.412;24.612;2022-11-25T03:41:09;99816.00;;;7.57;100.00
11672;BME280;5892;43.412;24.612;2022-11-25T03:43:35;99771.84;;;7.28;100.00
11672;BME280;5892;43.412;24.612;2022-11-25T03:46:02;99810.31;;;7.54;100.00
11672;BME280;5892;43.412;24.612;2022-11-25T03:48:30;99820.22;;;7.50;100.00
11672;BME280;5892;43.412;24.612;2022-11-25T03:50:56;99825.28;;;7.56;100.00
11672;BME280;5892;43.412;24.612;2022-11-25T03:53:25;99821.66;;;7.61;100.00
11672;BME280;5892;43.412;24.612;2022-11-25T03:55:52;99816.41;;;7.51;100.00
11672;BME280;5892;43.412;24.612;2022-11-25T03:58:19;99833.16;;;7.58;100.00
11672;BME280;5892;43.412;24.612;2022-11-25T04:00:46;99829.94;;;7.56;100.00
11672;BME280;5892;43.412;24.612;2022-11-25T04:03:14;99836.38;;;7.60;100.00
11672;BME280;5892;43.412;24.612;2022-11-25T04:05:41;99839.31;;;7.50;100.00
11672;BME280;5892;43.412;24.612;2022-11-25T04:08:07;99845.00;;;7.53;100.00
11672;BME280;5892;43.412;24.612;2022-11-25T04:10:36;99769.66;;;6.84;100.00
11672;BME280;5892;43.412;24.612;2022-11-25T04:13:03;99854.56;;;7.51;100.00
11672;BME280;5892;43.412;24.612;2022-11-25T04:15:29;99847.09;;;7.43;100.00
11672;BME280;5892;43.412;24.612;2022-11-25T04:17:56;99849.91;;;7.51;100.00
11672;BME280;5892;43.412;24.612;2022-11-25T04:20:22;99849.72;;;7.48;100.00
11672;BME280;5892;43.412;24.612;2022-11-25T04:22:49;99860.72;;;7.43;100.00
11672;BME280;5892;43.412;24.612;2022-11-25T04:25:16;99845.56;;;7.37;100.00
11672;BME280;5892;43.412;24.612;2022-11-25T04:27:45;99861.81;;;7.42;100.00
11672;BME280;5892;43.412;24.612;2022-11-25T04:30:13;99842.31;;;7.35;100.00
11672;BME280;5892;43.412;24.612;2022-11-25T04:32:40;99848.41;;;7.45;100.00
11672;BME280;5892;43.412;24.612;2022-11-25T04:35:07;99854.66;;;7.46;100.00
11672;BME280;5892;43.412;24.612;2022-11-25T04:37:35;99854.75;;;7.41;100.00
11672;BME280;5892;43.412;24.612;2022-11-25T04:40:02;99868.28;;;7.46;100.00
11672;BME280;5892;43.412;24.612;2022-11-25T04:42:30;99884.53;;;7.37;100.00
11672;BME280;5892;43.412;24.612;2022-11-25T04:45:05;99890.72;;;7.43;100.00
11672;BME280;5892;43.412;24.612;2022-11-25T04:47:33;99898.88;;;7.43;100.00
11672;BME280;5892;43.412;24.612;2022-11-25T04:49:59;99879.56;;;7.26;100.00
11672;BME280;5892;43.412;24.612;2022-11-25T04:52:26;99897.34;;;7.37;100.00
11672;BME280;5892;43.412;24.612;2022-11-25T04:54:53;99906.09;;;7.34;100.00
11672;BME280;5892;43.412;24.612;2022-11-25T04:57:20;99890.75;;;7.24;100.00
11672;BME280;5892;43.412;24.612;2022-11-25T04:59:47;99904.28;;;7.29;100.00
11672;BME280;5892;43.412;24.612;2022-11-25T05:02:21;99907.63;;;7.26;100.00
11672;BME280;5892;43.412;24.612;2022-11-25T05:04:55;99919.81;;;7.29;100.00
11672;BME280;5892;43.412;24.612;2022-11-25T05:07:26;99912.25;;;7.26;100.00
11672;BME280;5892;43.412;24.612;2022-11-25T05:10:09;99913.34;;;7.24;100.00
11672;BME280;5892;43.412;24.612;2022-11-25T05:12:36;99915.34;;;7.19;100.00
11672;BME280;5892;43.412;24.612;2022-11-25T05:15:04;99926.53;;;7.17;100.00
11672;BME280;5892;43.412;24.612;2022-11-25T05:17:38;99929.25;;;7.17;100.00
11672;BME280;5892;43.412;24.612;2022-11-25T05:20:06;99921.81;;;7.23;100.00
11672;BME280;5892;43.412;24.612;2022-11-25T05:22:39;99918.06;;;7.19;100.00
11672;BME280;5892;43.412;24.612;2022-11-25T05:25:06;99938.50;;;7.21;100.00
11672;BME280;5892;43.412;24.612;2022-11-25T05:27:35;99883.88;;;6.75;100.00
11672;BME280;5892;43.412;24.612;2022-11-25T05:30:02;99947.13;;;7.10;100.00
11672;BME280;5892;43.412;24.612;2022-11-25T05:32:29;99921.66;;;7.01;100.00
11672;BME280;5892;43.412;24.612;2022-11-25T05:34:58;99880.06;;;6.76;100.00
11672;BME280;5892;43.412;24.612;2022-11-25T05:37:24;99958.75;;;7.15;100.00
11672;BME280;5892;43.412;24.612;2022-11-25T05:39:51;99961.47;;;7.15;100.00
11672;BME280;5892;43.412;24.612;2022-11-25T05:42:18;99933.94;;;6.98;100.00
11672;BME280;5892;43.412;24.612;2022-11-25T05:44:45;99958.31;;;7.08;100.00
11672;BME280;5892;43.412;24.612;2022-11-25T05:47:12;99974.66;;;7.08;100.00
11672;BME280;5892;43.412;24.612;2022-11-25T05:49:41;99982.66;;;7.18;100.00
11672;BME280;5892;43.412;24.612;2022-11-25T05:52:09;99983.69;;;7.22;100.00
11672;BME280;5892;43.412;24.612;2022-11-25T05:54:36;99988.63;;;7.20;100.00
11672;BME280;5892;43.412;24.612;2022-11-25T05:57:04;99956.00;;;6.97;100.00
11672;BME280;5892;43.412;24.612;2022-11-25T05:59:31;99995.41;;;7.23;100.00
11672;BME280;5892;43.412;24.612;2022-11-25T06:01:58;99995.72;;;7.21;100.00
11672;BME280;5892;43.412;24.612;2022-11-25T06:04:26;100010.94;;;7.22;100.00
11672;BME280;5892;43.412;24.612;2022-11-25T06:06:56;100007.50;;;7.17;100.00
11672;BME280;5892;43.412;24.612;2022-11-25T06:09:25;100005.72;;;7.26;100.00
11672;BME280;5892;43.412;24.612;2022-11-25T06:11:52;100005.28;;;7.19;100.00
11672;BME280;5892;43.412;24.612;2022-11-25T06:14:19;100007.13;;;7.23;100.00
11672;BME280;5892;43.412;24.612;2022-11-25T06:16:46;100028.34;;;7.27;100.00
11672;BME280;5892;43.412;24.612;2022-11-25T06:19:14;100022.88;;;7.27;100.00
11672;BME280;5892;43.412;24.612;2022-11-25T06:21:41;100037.47;;;7.36;100.00
11672;BME280;5892;43.412;24.612;2022-11-25T06:24:08;99999.16;;;7.08;100.00
11672;BME280;5892;43.412;24.612;2022-11-25T06:26:37;100039.38;;;7.35;100.00
11672;BME280;5892;43.412;24.612;2022-11-25T06:29:04;100024.28;;;7.24;100.00
11672;BME280;5892;43.412;24.612;2022-11-25T06:31:30;100045.56;;;7.41;100.00
11672;BME280;5892;43.412;24.612;2022-11-25T06:33:57;100050.19;;;7.40;100.00
11672;BME280;5892;43.412;24.612;2022-11-25T06:36:24;100051.63;;;7.38;100.00
11672;BME280;5892;43.412;24.612;2022-11-25T06:38:53;100062.38;;;7.48;100.00
11672;BME280;5892;43.412;24.612;2022-11-25T06:41:20;100060.88;;;7.55;100.00
11672;BME280;5892;43.412;24.612;2022-11-25T06:43:49;100067.13;;;7.56;100.00
11672;BME280;5892;43.412;24.612;2022-11-25T06:46:17;100067.13;;;7.56;100.00
11672;BME280;5892;43.412;24.612;2022-11-25T06:48:45;100069.94;;;7.51;100.00
11672;BME280;5892;43.412;24.612;2022-11-25T06:51:13;100073.53;;;7.65;100.00
11672;BME280;5892;43.412;24.612;2022-11-25T06:53:40;100071.84;;;7.69;100.00
11672;BME280;5892;43.412;24.612;2022-11-25T06:56:10;100079.34;;;7.77;100.00
11672;BME280;5892;43.412;24.612;2022-11-25T06:58:38;100075.44;;;7.83;100.00
11672;BME280;5892;43.412;24.612;2022-11-25T07:01:09;100075.25;;;7.93;100.00
11672;BME280;5892;43.412;24.612;2022-11-25T07:03:37;100085.88;;;7.95;100.00
11672;BME280;5892;43.412;24.612;2022-11-25T07:06:04;100073.63;;;7.92;100.00
11672;BME280;5892;43.412;24.612;2022-11-25T07:08:32;100083.38;;;7.98;100.00
11672;BME280;5892;43.412;24.612;2022-11-25T07:11:02;100064.56;;;7.97;100.00
11672;BME280;5892;43.412;24.612;2022-11-25T07:13:29;100087.63;;;8.04;100.00
11672;BME280;5892;43.412;24.612;2022-11-25T07:15:59;100088.56;;;8.14;100.00
11672;BME280;5892;43.412;24.612;2022-11-25T07:18:30;100088.47;;;8.19;100.00
11672;BME280;5892;43.412;24.612;2022-11-25T07:21:09;100062.97;;;8.09;100.00
11672;BME280;5892;43.412;24.612;2022-11-25T07:23:37;100085.34;;;8.25;100.00
11672;BME280;5892;43.412;24.612;2022-11-25T07:26:09;100084.94;;;8.18;100.00
11672;BME280;5892;43.412;24.612;2022-11-25T07:28:37;100094.78;;;8.33;100.00
11672;BME280;5892;43.412;24.612;2022-11-25T07:31:06;100036.47;;;7.96;99.98
11672;BME280;5892;43.412;24.612;2022-11-25T07:33:35;100103.31;;;8.45;100.00
11672;BME280;5892;43.412;24.612;2022-11-25T07:36:03;100104.41;;;8.44;99.66
11672;BME280;5892;43.412;24.612;2022-11-25T07:38:30;100096.22;;;8.44;99.47
11672;BME280;5892;43.412;24.612;2022-11-25T07:41:03;100118.97;;;8.39;98.64
11672;BME280;5892;43.412;24.612;2022-11-25T07:43:30;100095.91;;;8.32;99.10
11672;BME280;5892;43.412;24.612;2022-11-25T07:46:10;100106.03;;;8.45;98.88
11672;BME280;5892;43.412;24.612;2022-11-25T07:48:39;100106.34;;;8.43;98.95
11672;BME280;5892;43.412;24.612;2022-11-25T07:51:12;100124.19;;;8.68;98.17
11672;BME280;5892;43.412;24.612;2022-11-25T07:53:39;100125.78;;;8.69;97.70
11672;BME280;5892;43.412;24.612;2022-11-25T07:56:07;100144.72;;;8.66;97.66
11672;BME280;5892;43.412;24.612;2022-11-25T07:58:33;100136.13;;;8.72;97.46
11672;BME280;5892;43.412;24.612;2022-11-25T08:01:01;100137.53;;;8.70;97.43
11672;BME280;5892;43.412;24.612;2022-11-25T08:03:28;100158.22;;;8.89;97.26
11672;BME280;5892;43.412;24.612;2022-11-25T08:06:00;100153.94;;;8.97;96.34
11672;BME280;5892;43.412;24.612;2022-11-25T08:08:27;100148.78;;;8.96;94.99
11672;BME280;5892;43.412;24.612;2022-11-25T08:10:54;100152.94;;;8.93;94.79
11672;BME280;5892;43.412;24.612;2022-11-25T08:13:22;100158.22;;;8.89;94.39
11672;BME280;5892;43.412;24.612;2022-11-25T08:15:49;100153.94;;;8.97;94.50
11672;BME280;5892;43.412;24.612;2022-11-25T08:18:16;100141.50;;;8.77;94.17
11672;BME280;5892;43.412;24.612;2022-11-25T08:20:43;100121.22;;;8.51;94.84
11672;BME280;5892;43.412;24.612;2022-11-25T08:23:11;100167.09;;;8.81;94.96
11672;BME280;5892;43.412;24.612;2022-11-25T08:25:39;100168.78;;;8.64;95.23
11672;BME280;5892;43.412;24.612;2022-11-25T08:28:06;100172.94;;;8.61;95.77
11672;BME280;5892;43.412;24.612;2022-11-25T08:30:34;100169.09;;;8.62;95.62
11672;BME280;5892;43.412;24.612;2022-11-25T08:33:03;100171.00;;;8.62;95.27
11672;BME280;5892;43.412;24.612;2022-11-25T08:35:32;100176.28;;;8.72;94.93
11672;BME280;5892;43.412;24.612;2022-11-25T08:38:02;100165.66;;;8.70;94.00
11672;BME280;5892;43.412;24.612;2022-11-25T08:40:31;100185.00;;;8.87;94.33
11672;BME280;5892;43.412;24.612;2022-11-25T08:42:59;100177.00;;;8.91;94.31
11672;BME280;5892;43.412;24.612;2022-11-25T08:45:25;100180.16;;;8.84;93.50
11672;BME280;5892;43.412;24.612;2022-11-25T08:47:53;100174.00;;;8.92;93.45
11672;BME280;5892;43.412;24.612;2022-11-25T08:50:20;100156.34;;;8.85;93.74
11672;BME280;5892;43.412;24.612;2022-11-25T08:52:48;100159.00;;;9.04;93.16
11672;BME280;5892;43.412;24.612;2022-11-25T08:55:15;100149.28;;;8.98;92.73
11672;BME280;5892;43.412;24.612;2022-11-25T08:57:44;100154.56;;;9.08;92.38
11672;BME280;5892;43.412;24.612;2022-11-25T09:00:11;100151.50;;;9.23;92.26
11672;BME280;5892;43.412;24.612;2022-11-25T09:02:38;100132.28;;;9.01;92.18
11672;BME280;5892;43.412;24.612;2022-11-25T09:05:06;100149.97;;;9.17;92.80
11672;BME280;5892;43.412;24.612;2022-11-25T09:07:32;100105.06;;;9.09;93.09
11672;BME280;5892;43.412;24.612;2022-11-25T09:09:59;100154.44;;;9.40;91.09
11672;BME280;5892;43.412;24.612;2022-11-25T09:12:26;100141.97;;;9.34;91.27
11672;BME280;5892;43.412;24.612;2022-11-25T09:14:54;100155.50;;;9.66;91.55
11672;BME280;5892;43.412;24.612;2022-11-25T09:17:21;100148.50;;;9.60;91.26
11672;BME280;5892;43.412;24.612;2022-11-25T09:19:49;100163.97;;;9.78;90.46
11672;BME280;5892;43.412;24.612;2022-11-25T09:22:15;100153.41;;;9.86;90.12
11672;BME280;5892;43.412;24.612;2022-11-25T09:24:42;100159.72;;;10.08;90.12
11672;BME280;5892;43.412;24.612;2022-11-25T09:27:09;100148.31;;;10.15;88.62
11672;BME280;5892;43.412;24.612;2022-11-25T09:29:39;100169.63;;;10.18;88.01
11672;BME280;5892;43.412;24.612;2022-11-25T09:32:07;100167.28;;;10.25;88.05
11672;BME280;5892;43.412;24.612;2022-11-25T09:34:34;100171.31;;;10.28;88.07
11672;BME280;5892;43.412;24.612;2022-11-25T09:37:01;100170.50;;;10.27;88.60
11672;BME280;5892;43.412;24.612;2022-11-25T09:39:28;100172.94;;;10.29;87.43
11672;BME280;5892;43.412;24.612;2022-11-25T09:42:08;100175.38;;;10.30;88.23
11672;BME280;5892;43.412;24.612;2022-11-25T09:45:04;100174.69;;;10.25;88.53
11672;BME280;5892;43.412;24.612;2022-11-25T09:48:02;100162.75;;;10.07;88.13
11672;BME280;5892;43.412;24.612;2022-11-25T09:50:42;100178.84;;;10.22;88.53
11672;BME280;5892;43.412;24.612;2022-11-25T09:53:25;100176.22;;;10.17;88.35
11672;BME280;5892;43.412;24.612;2022-11-25T09:56:02;100177.25;;;10.07;88.59
11672;BME280;5892;43.412;24.612;2022-11-25T09:58:34;100181.56;;;10.22;88.70
11672;BME280;5892;43.412;24.612;2022-11-25T10:01:04;100176.09;;;10.22;88.81
11672;BME280;5892;43.412;24.612;2022-11-25T10:03:37;100180.16;;;10.25;89.00
11672;BME280;5892;43.412;24.612;2022-11-25T10:06:07;100175.84;;;10.32;88.67
11672;BME280;5892;43.412;24.612;2022-11-25T10:08:40;100175.38;;;10.30;87.65
11672;BME280;5892;43.412;24.612;2022-11-25T10:11:16;100158.56;;;10.23;87.15
11672;BME280;5892;43.412;24.612;2022-11-25T10:13:49;100166.59;;;10.19;87.71
11672;BME280;5892;43.412;24.612;2022-11-25T10:16:27;100167.63;;;10.32;87.97
11672;BME280;5892;43.412;24.612;2022-11-25T10:19:01;100165.66;;;10.24;87.59
11672;BME280;5892;43.412;24.612;2022-11-25T10:21:30;100142.47;;;10.08;86.86
11672;BME280;5892;43.412;24.612;2022-11-25T10:23:57;100164.16;;;10.18;86.96
11672;BME280;5892;43.412;24.612;2022-11-25T10:26:30;100163.84;;;10.06;86.54
11672;BME280;5892;43.412;24.612;2022-11-25T10:29:14;100142.97;;;9.88;86.21
11672;BME280;5892;43.412;24.612;2022-11-25T10:31:45;100161.00;;;10.11;86.58
11672;BME280;5892;43.412;24.612;2022-11-25T10:34:19;100156.53;;;10.15;86.58
11672;BME280;5892;43.412;24.612;2022-11-25T10:36:50;100159.19;;;10.20;86.38
11672;BME280;5892;43.412;24.612;2022-11-25T10:39:20;100156.75;;;10.18;85.99
11672;BME280;5892;43.412;24.612;2022-11-25T10:41:54;100135.66;;;10.05;85.76
11672;BME280;5892;43.412;24.612;2022-11-25T10:44:24;100154.31;;;10.17;86.14
11672;BME280;5892;43.412;24.612;2022-11-25T10:47:03;100148.13;;;10.11;85.10
11672;BME280;5892;43.412;24.612;2022-11-25T10:49:39;100132.88;;;9.97;85.26
11672;BME280;5892;43.412;24.612;2022-11-25T10:52:13;100159.19;;;10.20;85.51
11672;BME280;5892;43.412;24.612;2022-11-25T10:54:54;100137.75;;;10.22;85.64
11672;BME280;5892;43.412;24.612;2022-11-25T10:57:26;100146.34;;;10.29;85.63
11672;BME280;5892;43.412;24.612;2022-11-25T10:59:55;100128.56;;;10.18;85.86
11672;BME280;5892;43.412;24.612;2022-11-25T11:02:26;100137.97;;;10.26;85.03
11672;BME280;5892;43.412;24.612;2022-11-25T11:04:57;100138.06;;;10.20;84.68
11672;BME280;5892;43.412;24.612;2022-11-25T11:07:26;100151.97;;;10.24;85.24
11672;BME280;5892;43.412;24.612;2022-11-25T11:09:54;100168.38;;;10.24;85.04
11672;BME280;5892;43.412;24.612;2022-11-25T11:12:49;100162.41;;;10.22;84.82
11672;BME280;5892;43.412;24.612;2022-11-25T11:15:21;100163.13;;;10.14;76.37
11672;BME280;5892;43.412;24.612;2022-11-25T11:17:48;100163.13;;;10.14;75.76
11672;BME280;5892;43.412;24.612;2022-11-25T11:20:21;100135.75;;;9.92;75.18
11672;BME280;5892;43.412;24.612;2022-11-25T11:22:54;100149.69;;;10.04;75.67
11672;BME280;5892;43.412;24.612;2022-11-25T11:25:28;100157.78;;;10.09;76.24
11672;BME280;5892;43.412;24.612;2022-11-25T11:27:56;100153.75;;;10.29;76.59
11672;BME280;5892;43.412;24.612;2022-11-25T11:30:28;100118.25;;;10.01;76.40
11672;BME280;5892;43.412;24.612;2022-11-25T11:33:01;100162.41;;;10.22;76.54
11672;BME280;5892;43.412;24.612;2022-11-25T11:35:49;100157.13;;;10.26;75.56
11672;BME280;5892;43.412;24.612;2022-11-25T11:38:26;100160.53;;;10.31;75.33
11672;BME280;5892;43.412;24.612;2022-11-25T11:41:03;100160.78;;;10.21;75.15
11672;BME280;5892;43.412;24.612;2022-11-25T11:43:48;100174.22;;;10.31;74.83
11672;BME280;5892;43.412;24.612;2022-11-25T11:46:31;100171.97;;;10.55;74.30
11672;BME280;5892;43.412;24.612;2022-11-25T11:49:13;100162.09;;;10.77;73.40
11672;BME280;5892;43.412;24.612;2022-11-25T11:51:48;100175.53;;;10.87;71.31
11672;BME280;5892;43.412;24.612;2022-11-25T11:54:27;100168.25;;;10.82;72.14
11672;BME280;5892;43.412;24.612;2022-11-25T11:57:02;100176.28;;;10.79;72.62
11672;BME280;5892;43.412;24.612;2022-11-25T11:59:42;100132.69;;;10.38;71.78
11672;BME280;5892;43.412;24.612;2022-11-25T12:02:28;100098.44;;;10.18;72.26
11672;BME280;5892;43.412;24.612;2022-11-25T12:05:04;100176.53;;;10.69;72.02
11672;BME280;5892;43.412;24.612;2022-11-25T12:07:36;100174.63;;;10.69;71.63
11672;BME280;5892;43.412;24.612;2022-11-25T12:10:09;100173.19;;;10.72;71.87
11672;BME280;5892;43.412;24.612;2022-11-25T12:12:47;100185.09;;;10.67;73.21
11672;BME280;5892;43.412;24.612;2022-11-25T12:15:18;100188.88;;;10.57;73.40
11672;BME280;5892;43.412;24.612;2022-11-25T12:17:51;100183.91;;;10.59;72.65
11672;BME280;5892;43.412;24.612;2022-11-25T12:20:33;100179.94;;;10.66;72.75
11672;BME280;5892;43.412;24.612;2022-11-25T12:23:08;100184.31;;;10.75;72.33
11672;BME280;5892;43.412;24.612;2022-11-25T12:25:40;100186.66;;;10.59;72.81
11672;BME280;5892;43.412;24.612;2022-11-25T12:28:10;100181.81;;;10.56;72.94
11672;BME280;5892;43.412;24.612;2022-11-25T12:30:52;100183.41;;;10.57;73.62
11672;BME280;5892;43.412;24.612;2022-11-25T12:33:27;100180.06;;;10.60;74.30
11672;BME280;5892;43.412;24.612;2022-11-25T12:36:04;100195.13;;;10.49;74.83
11672;BME280;5892;43.412;24.612;2022-11-25T12:38:42;100180.84;;;10.30;75.35
11672;BME280;5892;43.412;24.612;2022-11-25T12:41:16;100178.28;;;10.34;75.77
11672;BME280;5892;43.412;24.612;2022-11-25T12:43:50;100185.81;;;10.28;76.51
11672;BME280;5892;43.412;24.612;2022-11-25T12:46:26;100179.81;;;10.26;76.55
11672;BME280;5892;43.412;24.612;2022-11-25T12:48:56;100194.03;;;10.28;76.31
11672;BME280;5892;43.412;24.612;2022-11-25T12:51:39;100183.25;;;10.32;74.70
11672;BME280;5892;43.412;24.612;2022-11-25T12:54:23;100181.31;;;10.32;73.94
11672;BME280;5892;43.412;24.612;2022-11-25T12:57:27;100176.47;;;10.29;74.31
11672;BME280;5892;43.412;24.612;2022-11-25T13:00:05;100188.53;;;10.28;75.07
11672;BME280;5892;43.412;24.612;2022-11-25T13:02:56;100194.78;;;10.20;76.45
11672;BME280;5892;43.412;24.612;2022-11-25T13:05:53;100181.31;;;10.10;77.97
11672;BME280;5892;43.412;24.612;2022-11-25T13:08:35;100183.66;;;10.03;78.38
11672;BME280;5892;43.412;24.612;2022-11-25T13:11:26;100174.56;;;9.94;79.44
11672;BME280;5892;43.412;24.612;2022-11-25T13:14:01;100195.09;;;10.05;79.83
11672;BME280;5892;43.412;24.612;2022-11-25T13:16:31;100182.69;;;10.21;80.02